Time;durP1;ratioP1;P1;durP2;ratioP2;P2;SDS_P1;SDS_P2;PMS_P1;PMS_P2;Temp;Humidity;BMP_temperature;BMP_pressure;BME280_temperature;BME280_humidity;BME280_pressure;Samples;Min_cycle;Max_cycle;Signal;HPM_P1;HPM_P2
2022/01/21 00:00:45;;;;;;;27.07;3.60;;;;;;;;;;4807611;29;20452;-81
2022/01/21 00:03:11;;;;;;;24.30;3.58;;;2.60;99.90;;;;;;4803235;29;20054;-81
2022/01/21 00:05:36;;;;;;;34.10;4.43;;;-0.80;99.90;;;;;;4802966;29;20058;-80
2022/01/21 00:08:02;;;;;;;36.57;4.30;;;3.80;99.90;;;;;;4787260;29;20055;-80
2022/01/21 00:10:28;;;;;;;28.52;3.67;;;2.80;99.90;;;;;;4791827;29;20436;-88
2022/01/21 00:12:55;;;;;;;34.27;4.17;;;5.70;99.90;;;;;;4815085;29;20081;-79
2022/01/21 00:15:20;;;;;;;27.25;3.70;;;4.20;99.90;;;;;;4811696;29;20058;-80
2022/01/21 00:17:46;;;;;;;25.13;3.73;;;4.30;99.90;;;;;;4804176;29;20468;-79
2022/01/21 00:31:11;;;;;;;22.60;3.80;;;6.70;99.90;;;;;;4807077;29;20188;-79
2022/01/21 00:33:37;;;;;;;36.17;4.77;;;4.50;99.90;;;;;;4790079;29;20501;-80
2022/01/21 00:36:04;;;;;;;32.28;3.17;;;5.80;99.90;;;;;;4790657;29;20497;-79
2022/01/21 00:38:31;;;;;;;27.53;3.23;;;3.60;99.90;;;;;;4802299;29;20047;-87
2022/01/21 00:40:59;;;;;;;30.83;3.87;;;5.60;99.90;;;;;;4800392;29;20051;-79
2022/01/21 00:43:32;;;;;;;18.17;2.67;;;3.10;99.90;;;;;;4790565;29;20051;-79
2022/01/21 00:48:46;;;;;;;25.23;3.35;;;3.10;99.90;;;;;;4790109;29;20062;-79
2022/01/21 00:51:12;;;;;;;15.57;2.97;;;5.00;99.90;;;;;;4790261;29;20361;-79
2022/01/21 00:53:38;;;;;;;19.57;2.87;;;4.50;99.90;;;;;;4805676;29;20115;-79
2022/01/21 00:56:04;;;;;;;23.88;3.00;;;4.90;99.90;;;;;;4805587;29;20074;-79
2022/01/21 00:58:29;;;;;;;22.17;3.20;;;3.20;99.90;;;;;;4806106;29;20047;-79
2022/01/21 01:00:55;;;;;;;16.10;2.83;;;;;;;;;;4803359;29;20055;-79
2022/01/21 01:03:21;;;;;;;20.90;3.15;;;2.40;99.90;;;;;;4806109;29;20081;-79
2022/01/21 01:05:51;;;;;;;14.07;2.27;;;0.90;99.90;;;;;;4805844;29;20086;-79
2022/01/21 01:08:17;;;;;;;15.80;2.43;;;1.40;99.90;;;;;;4789946;29;20046;-79
2022/01/21 01:21:24;;;;;;;19.33;2.43;;;5.20;99.90;;;;;;4817701;29;20107;-79
2022/01/21 01:29:13;;;;;;;17.17;3.10;;;3.40;99.90;;;;;;4808570;29;20085;-80
2022/01/21 01:31:38;;;;;;;25.08;3.00;;;4.80;99.90;;;;;;4820395;29;20508;-79
2022/01/21 01:34:04;;;;;;;16.73;2.67;;;2.80;99.90;;;;;;4809248;29;20125;-79
2022/01/21 01:36:30;;;;;;;17.30;2.90;;;5.50;99.90;;;;;;4805936;29;20058;-79
2022/01/21 01:41:48;;;;;;;19.58;3.10;;;;;;;;;;4805397;29;20377;-87
2022/01/21 01:49:43;;;;;;;26.25;3.53;;;2.90;99.90;;;;;;4789781;29;20063;-79
2022/01/21 01:52:13;;;;;;;16.77;2.60;;;5.50;99.90;;;;;;4805790;29;20413;-80
2022/01/21 01:54:49;;;;;;;22.23;3.13;;;4.10;99.90;;;;;;4804462;29;20489;-80
2022/01/21 01:57:15;;;;;;;19.50;2.55;;;;;;;;;;4804413;29;20061;-84
2022/01/21 01:59:41;;;;;;;18.73;2.88;;;;;;;;;;4805176;29;20205;-79
2022/01/21 02:02:10;;;;;;;16.43;2.50;;;4.00;99.90;;;;;;4786143;30;20103;-80
2022/01/21 02:04:36;;;;;;;19.95;2.55;;;;;;;;;;4788785;29;20512;-81
2022/01/21 02:07:02;;;;;;;18.38;2.60;;;4.00;99.90;;;;;;4804948;29;20054;-79
2022/01/21 02:09:29;;;;;;;18.30;2.40;;;2.90;99.90;;;;;;4805101;29;20066;-79
2022/01/21 02:11:55;;;;;;;19.13;2.53;;;3.70;99.90;;;;;;4787974;29;20378;-80
2022/01/21 02:14:27;;;;;;;19.75;2.33;;;4.70;99.90;;;;;;4804295;29;20047;-82
2022/01/21 02:22:14;;;;;;;20.70;2.28;;;5.10;99.90;;;;;;4804776;29;20055;-80
2022/01/21 02:24:56;;;;;;;19.15;2.40;;;4.30;99.90;;;;;;4804625;29;20156;-88
2022/01/21 02:27:22;;;;;;;12.23;1.77;;;2.70;99.90;;;;;;4803270;29;20446;-79
2022/01/21 02:29:51;;;;;;;16.77;1.93;;;4.10;99.90;;;;;;4804599;29;20055;-81
2022/01/21 02:32:18;;;;;;;14.15;2.38;;;5.90;99.90;;;;;;4804532;29;20074;-79
2022/01/21 02:34:46;;;;;;;14.65;1.95;;;3.80;99.90;;;;;;4806424;29;20054;-80
2022/01/21 02:37:18;;;;;;;17.85;2.78;;;4.00;99.90;;;;;;4806201;29;20109;-80
2022/01/21 02:39:44;;;;;;;21.27;2.33;;;2.70;99.90;;;;;;4822305;29;20050;-81
2022/01/21 02:42:10;;;;;;;17.58;2.50;;;;;;;;;;4811211;29;20046;-80
2022/01/21 02:44:38;;;;;;;16.50;2.57;;;;;;;;;;4804251;29;20039;-80
2022/01/21 02:47:05;;;;;;;16.48;2.38;;;3.80;99.90;;;;;;4797903;29;20119;-80
2022/01/21 02:49:31;;;;;;;15.52;2.67;;;4.60;99.90;;;;;;4804635;29;20055;-80
2022/01/21 02:52:02;;;;;;;15.13;2.08;;;3.70;99.90;;;;;;4803662;29;20078;-81
2022/01/21 02:54:34;;;;;;;21.50;2.40;;;6.00;99.90;;;;;;4803985;29;20501;-80
2022/01/21 02:57:00;;;;;;;22.67;1.93;;;3.30;99.90;;;;;;4803702;29;20126;-79
2022/01/21 02:59:26;;;;;;;15.97;2.30;;;5.10;99.90;;;;;;4804165;29;20138;-80
2022/01/21 03:01:53;;;;;;;15.43;2.10;;;4.60;99.90;;;;;;4787366;29;20050;-80
2022/01/21 03:04:36;;;;;;;25.25;2.40;;;3.90;99.90;;;;;;4804153;29;20057;-80
2022/01/21 03:07:02;;;;;;;24.87;2.50;;;3.20;99.90;;;;;;4782087;30;20089;-81
2022/01/21 03:09:28;;;;;;;14.90;2.33;;;4.40;99.90;;;;;;4773213;29;20066;-80
2022/01/21 03:11:54;;;;;;;15.25;2.30;;;;;;;;;;4803262;29;20051;-82
2022/01/21 03:14:20;;;;;;;14.77;2.30;;;3.80;99.90;;;;;;4803756;29;20086;-80
2022/01/21 03:16:46;;;;;;;16.77;2.37;;;;;;;;;;4803955;29;20089;-89
2022/01/21 03:19:13;;;;;;;10.10;2.05;;;4.30;99.90;;;;;;4803444;29;20090;-81
2022/01/21 03:21:39;;;;;;;19.10;2.47;;;;;;;;;;4803314;29;20447;-81
2022/01/21 03:24:05;;;;;;;16.23;2.40;;;1.70;99.90;;;;;;4803525;29;20063;-80
2022/01/21 03:26:30;;;;;;;10.43;2.03;;;3.90;99.90;;;;;;4803658;29;20082;-80
2022/01/21 03:28:59;;;;;;;23.52;2.10;;;3.70;99.90;;;;;;4786108;29;20138;-80
2022/01/21 03:31:25;;;;;;;20.60;2.45;;;3.40;99.90;;;;;;4787087;29;20054;-82
2022/01/21 03:33:51;;;;;;;15.98;2.30;;;2.30;99.90;;;;;;4802713;29;20161;-80
2022/01/21 03:36:17;;;;;;;22.55;2.10;;;5.20;99.90;;;;;;4803460;29;20498;-82
2022/01/21 03:38:43;;;;;;;16.95;2.38;;;;;;;;;;4814446;29;20050;-80
2022/01/21 03:41:10;;;;;;;12.27;2.13;;;;;;;;;;4808612;29;20821;-80
2022/01/21 03:43:36;;;;;;;18.63;2.22;;;;;;;;;;4805257;29;20058;-81
2022/01/21 03:46:03;;;;;;;13.80;2.27;;;2.00;99.90;;;;;;4796772;29;20382;-81
2022/01/21 03:48:30;;;;;;;11.07;2.00;;;3.70;99.90;;;;;;4818093;29;20046;-79
2022/01/21 03:50:56;;;;;;;23.33;2.28;;;5.60;99.90;;;;;;4808119;29;20549;-80
2022/01/21 03:53:22;;;;;;;14.70;2.47;;;4.50;99.90;;;;;;4812295;29;20039;-80
2022/01/21 03:55:48;;;;;;;22.10;2.20;;;3.40;99.90;;;;;;4802622;29;20051;-80
2022/01/21 03:58:15;;;;;;;14.67;2.03;;;5.30;99.90;;;;;;4810675;29;20146;-79
2022/01/21 04:00:48;;;;;;;20.08;1.65;;;3.40;99.90;;;;;;4804427;29;20051;-79
2022/01/21 04:03:14;;;;;;;15.70;1.77;;;2.70;99.90;;;;;;4803417;29;20386;-79
2022/01/21 04:05:41;;;;;;;9.77;1.75;;;;;;;;;;4803905;29;20059;-79
2022/01/21 04:08:08;;;;;;;10.90;2.00;;;3.40;99.90;;;;;;4802855;29;20067;-80
2022/01/21 04:10:35;;;;;;;15.93;1.85;;;2.90;99.90;;;;;;4802899;29;20047;-80
2022/01/21 04:13:03;;;;;;;10.60;1.60;;;2.50;99.90;;;;;;4804089;29;20051;-79
2022/01/21 04:15:29;;;;;;;19.00;2.10;;;2.50;99.90;;;;;;4802831;29;20078;-80
2022/01/21 04:17:54;;;;;;;13.98;1.90;;;3.40;99.90;;;;;;4801246;29;20075;-86
2022/01/21 04:20:20;;;;;;;10.57;2.13;;;3.20;99.90;;;;;;4815992;29;20442;-80
2022/01/21 04:22:46;;;;;;;25.00;2.13;;;1.60;99.90;;;;;;4803912;29;20520;-80
2022/01/21 04:25:12;;;;;;;13.77;1.95;;;1.70;99.90;;;;;;4816708;29;20050;-80
2022/01/21 04:27:38;;;;;;;13.55;1.70;;;2.60;99.90;;;;;;4817553;29;20119;-79
2022/01/21 04:30:06;;;;;;;18.63;2.10;;;3.80;99.90;;;;;;4803284;29;20141;-79
2022/01/21 04:32:32;;;;;;;11.25;2.25;;;1.70;99.90;;;;;;4786907;29;20054;-79
2022/01/21 04:34:57;;;;;;;15.35;2.00;;;1.10;99.90;;;;;;4802877;29;20062;-80
2022/01/21 04:37:23;;;;;;;19.70;2.28;;;4.60;99.90;;;;;;4803245;29;20043;-79
2022/01/21 04:40:12;;;;;;;28.55;2.47;;;2.60;99.90;;;;;;4806235;29;20050;-79
2022/01/21 04:48:07;;;;;;;18.50;2.55;;;2.00;99.90;;;;;;4802581;29;20642;-80
2022/01/21 04:50:41;;;;;;;26.88;3.08;;;3.20;99.90;;;;;;4786065;29;20055;-80
2022/01/21 04:53:07;;;;;;;29.37;2.97;;;-0.70;99.90;;;;;;4799980;29;20130;-81
2022/01/21 04:55:35;;;;;;;34.30;3.43;;;1.90;99.90;;;;;;4804647;29;20497;-80
2022/01/21 04:58:01;;;;;;;28.15;3.10;;;3.40;99.90;;;;;;4804691;29;20489;-80
2022/01/21 05:00:27;;;;;;;23.57;2.70;;;4.20;99.90;;;;;;4806304;29;20051;-86
2022/01/21 05:02:53;;;;;;;24.87;3.17;;;4.20;99.90;;;;;;4806595;29;20133;-80
2022/01/21 05:05:18;;;;;;;25.00;2.75;;;3.30;99.90;;;;;;4789351;29;20100;-82
2022/01/21 05:07:44;;;;;;;30.50;3.08;;;2.50;99.90;;;;;;4787133;29;20051;-79
2022/01/21 05:10:10;;;;;;;27.43;2.87;;;2.40;99.90;;;;;;4804287;29;20050;-79
2022/01/21 05:12:36;;;;;;;15.23;2.88;;;2.60;99.90;;;;;;4804994;29;20390;-79
2022/01/21 05:15:20;;;;;;;24.80;3.40;;;1.50;99.90;;;;;;4805500;29;20058;-79
2022/01/21 05:17:49;;;;;;;20.97;2.63;;;2.50;99.90;;;;;;4805542;29;20584;-79
2022/01/21 05:20:16;;;;;;;19.80;2.87;;;2.50;99.90;;;;;;4805210;29;20652;-79
2022/01/21 05:22:42;;;;;;;21.63;2.70;;;2.60;99.90;;;;;;4805621;29;20394;-79
2022/01/21 05:25:16;;;;;;;19.50;3.13;;;1.50;99.90;;;;;;4805813;29;20150;-79
2022/01/21 05:27:50;;;;;;;23.37;2.73;;;3.00;99.90;;;;;;4804682;29;20122;-79
2022/01/21 05:30:17;;;;;;;40.00;3.65;;;4.90;99.90;;;;;;4805284;29;20047;-78
2022/01/21 05:32:43;;;;;;;30.25;3.38;;;4.50;99.90;;;;;;4803833;29;20486;-79
2022/01/21 05:35:09;;;;;;;29.10;3.07;;;4.70;99.90;;;;;;4804568;29;20504;-78
2022/01/21 05:37:36;;;;;;;30.60;3.17;;;3.20;99.90;;;;;;4801159;29;20070;-81
2022/01/21 05:40:05;;;;;;;20.43;2.90;;;2.80;99.90;;;;;;4804492;29;20101;-84
2022/01/21 05:42:33;;;;;;;29.45;3.50;;;2.50;99.90;;;;;;4804187;29;20374;-78
2022/01/21 05:47:26;;;;;;;33.20;3.45;;;5.20;99.90;;;;;;4814770;29;20061;-78
2022/01/21 05:49:52;;;;;;;14.40;2.88;;;;;;;;;;4808744;29;20050;-78
2022/01/21 05:52:20;;;;;;;30.90;3.13;;;4.70;99.90;;;;;;4791773;29;20058;-77
2022/01/21 05:54:46;;;;;;;25.35;3.17;;;3.70;99.90;;;;;;4806472;29;20046;-78
2022/01/21 05:57:15;;;;;;;22.60;2.87;;;1.00;99.90;;;;;;4804259;29;20046;-78
2022/01/21 05:59:41;;;;;;;32.65;3.40;;;4.80;99.90;;;;;;4801301;29;20047;-78
2022/01/21 06:02:08;;;;;;;22.88;2.83;;;3.30;99.90;;;;;;4803919;29;20081;-78
2022/01/21 06:04:36;;;;;;;27.55;2.90;;;2.90;99.90;;;;;;4809539;29;20054;-77
2022/01/21 06:07:04;;;;;;;24.17;3.00;;;1.80;99.90;;;;;;4815042;29;20050;-77
2022/01/21 06:09:30;;;;;;;32.10;3.20;;;3.40;99.90;;;;;;4813003;29;20097;-82
2022/01/21 06:11:56;;;;;;;24.35;2.90;;;5.50;99.90;;;;;;4805303;29;20057;-78
2022/01/21 06:14:24;;;;;;;24.75;3.03;;;3.40;99.90;;;;;;4804410;29;20117;-78
2022/01/21 06:16:50;;;;;;;16.30;2.70;;;4.70;99.90;;;;;;4804175;29;20054;-79
2022/01/21 06:19:15;;;;;;;21.30;3.22;;;2.10;99.90;;;;;;4801744;29;20089;-78
2022/01/21 06:24:25;;;;;;;29.38;3.33;;;3.30;99.90;;;;;;4803681;29;20487;-78
2022/01/21 06:26:51;;;;;;;26.93;3.33;;;5.60;99.90;;;;;;4802996;29;20070;-77
2022/01/21 06:29:17;;;;;;;20.60;2.57;;;2.80;99.90;;;;;;4803853;29;20058;-78
2022/01/21 06:31:42;;;;;;;24.58;2.85;;;4.50;99.90;;;;;;4808017;29;20102;-78
2022/01/21 06:34:08;;;;;;;32.75;3.30;;;4.70;99.90;;;;;;4815114;29;20046;-80
2022/01/21 06:36:34;;;;;;;28.27;3.45;;;3.70;99.90;;;;;;4800673;29;20458;-78
2022/01/21 06:38:59;;;;;;;33.75;4.00;;;3.70;99.90;;;;;;4803146;29;20047;-78
2022/01/21 06:41:25;;;;;;;22.80;3.43;;;3.60;99.90;;;;;;4801830;29;20054;-79
2022/01/21 06:43:51;;;;;;;33.58;3.33;;;6.00;99.90;;;;;;4804251;29;20050;-78
2022/01/21 06:46:16;;;;;;;26.48;2.85;;;4.90;99.90;;;;;;4787917;29;20055;-79
2022/01/21 06:48:42;;;;;;;28.80;3.60;;;3.70;99.90;;;;;;4772580;29;20223;-77
2022/01/21 06:51:08;;;;;;;22.77;3.22;;;4.90;99.90;;;;;;4772258;29;20066;-84
2022/01/21 06:53:33;;;;;;;20.63;3.00;;;0.70;99.90;;;;;;4803690;29;20050;-78
2022/01/21 06:55:59;;;;;;;29.95;3.10;;;6.30;99.90;;;;;;4803019;29;20115;-78
2022/01/21 06:58:25;;;;;;;28.60;3.23;;;;;;;;;;4803124;29;20731;-80
2022/01/21 07:00:51;;;;;;;23.77;2.70;;;3.30;99.90;;;;;;4804433;29;20061;-77
2022/01/21 07:03:16;;;;;;;31.20;3.40;;;3.80;99.90;;;;;;4802224;29;20055;-78
2022/01/21 07:05:46;;;;;;;27.63;3.55;;;2.70;99.90;;;;;;4803847;29;20180;-77
2022/01/21 07:08:14;;;;;;;32.35;3.47;;;4.10;99.90;;;;;;4803122;29;20065;-78
2022/01/21 07:10:40;;;;;;;;;;;2.70;99.90;;;;;;4803637;29;20046;-77
2022/01/21 07:13:06;;;;;;;22.97;3.07;;;3.40;99.90;;;;;;4791817;29;20002;-81
2022/01/21 07:15:32;;;;;;;27.92;3.22;;;;;;;;;;4803590;29;20050;-79
2022/01/21 07:17:57;;;;;;;25.52;3.20;;;3.00;99.90;;;;;;4804510;29;20120;-78
2022/01/21 07:20:23;;;;;;;20.05;2.90;;;1.30;99.90;;;;;;4803599;29;20054;-78
2022/01/21 07:22:49;;;;;;;23.10;3.43;;;3.90;99.90;;;;;;4803941;29;20084;-77
2022/01/21 07:25:15;;;;;;;18.85;3.08;;;2.80;99.90;;;;;;4803472;29;20047;-77
2022/01/21 07:27:42;;;;;;;25.97;3.37;;;3.30;99.90;;;;;;4804306;29;20080;-77
2022/01/21 07:30:09;;;;;;;29.17;2.72;;;2.30;99.90;;;;;;4811600;29;20054;-77
2022/01/21 07:32:35;;;;;;;22.63;3.28;;;;;;;;;;4815118;29;20060;-84
2022/01/21 07:35:00;;;;;;;27.88;3.30;;;1.70;99.90;;;;;;4793461;29;20046;-77
2022/01/21 07:37:26;;;;;;;39.87;3.67;;;;;;;;;;4786903;29;20196;-78
2022/01/21 07:39:52;;;;;;;27.30;3.53;;;;;;;;;;4784840;30;20436;-77
2022/01/21 07:42:18;;;;;;;30.40;3.20;;;2.00;99.90;;;;;;4790730;29;20058;-78
2022/01/21 07:44:44;;;;;;;28.57;3.17;;;5.60;99.90;;;;;;4805959;29;20046;-77
2022/01/21 07:47:10;;;;;;;42.67;3.80;;;1.50;99.90;;;;;;4803484;29;20381;-80
2022/01/21 07:49:35;;;;;;;22.83;3.03;;;5.10;99.90;;;;;;4810018;29;20050;-78
2022/01/21 07:52:01;;;;;;;32.83;3.70;;;1.70;99.90;;;;;;4820699;29;20042;-78
2022/01/21 07:54:27;;;;;;;29.60;2.97;;;4.50;99.90;;;;;;4821011;29;20050;-78
2022/01/21 07:56:52;;;;;;;30.33;3.28;;;4.40;99.90;;;;;;4804776;29;20043;-77
2022/01/21 07:59:18;;;;;;;30.40;3.45;;;4.10;99.90;;;;;;4802766;29;20088;-78
2022/01/21 08:01:44;;;;;;;20.40;3.20;;;5.90;99.90;;;;;;4807012;29;20621;-78
2022/01/21 08:04:10;;;;;;;19.80;3.57;;;2.90;99.90;;;;;;4802604;29;20046;-77
2022/01/21 08:06:36;;;;;;;23.83;3.17;;;3.10;99.90;;;;;;4806080;29;20055;-78
2022/01/21 08:09:03;;;;;;;21.43;3.07;;;4.50;99.90;;;;;;4821651;29;20107;-77
2022/01/21 08:11:29;;;;;;;16.77;2.80;;;4.40;99.90;;;;;;4821659;29;20141;-77
2022/01/21 08:13:55;;;;;;;26.67;3.38;;;3.90;99.90;;;;;;4810141;29;20374;-77
2022/01/21 08:16:20;;;;;;;17.63;2.78;;;3.40;99.90;;;;;;4812535;29;20047;-77
2022/01/21 08:18:46;;;;;;;27.48;3.40;;;3.70;99.90;;;;;;4787299;29;20057;-78
2022/01/21 08:21:18;;;;;;;31.00;3.40;;;;;;;;;;4803641;29;20055;-86
2022/01/21 08:23:46;;;;;;;24.10;3.70;;;3.00;99.90;;;;;;4787679;29;20373;-77
2022/01/21 08:26:12;;;;;;;36.75;4.18;;;5.10;99.90;;;;;;4813812;29;20125;-77
2022/01/21 08:28:37;;;;;;;24.55;3.33;;;4.60;99.90;;;;;;4820693;29;20158;-77
2022/01/21 08:31:03;;;;;;;25.17;3.35;;;5.80;99.90;;;;;;4792062;29;20050;-77
2022/01/21 08:33:29;;;;;;;25.50;3.53;;;3.50;99.90;;;;;;4809940;29;20054;-79
2022/01/21 08:35:54;;;;;;;22.30;3.13;;;5.40;99.90;;;;;;4806780;29;20234;-80
2022/01/21 08:38:21;;;;;;;32.33;3.50;;;2.80;99.90;;;;;;4821737;29;20042;-79
2022/01/21 08:40:48;;;;;;;29.20;3.75;;;5.30;99.90;;;;;;4811501;29;20069;-77
2022/01/21 08:43:14;;;;;;;21.27;3.97;;;4.30;99.90;;;;;;4809151;29;20058;-77
2022/01/21 08:45:40;;;;;;;27.40;4.30;;;5.10;99.90;;;;;;4822514;29;20058;-78
2022/01/21 08:48:05;;;;;;;27.10;3.65;;;3.60;99.90;;;;;;4824199;29;20046;-78
2022/01/21 08:50:31;;;;;;;33.58;4.00;;;2.80;99.90;;;;;;4821964;29;20085;-77
2022/01/21 08:53:08;;;;;;;35.15;4.15;;;3.90;99.90;;;;;;4808963;29;20094;-77
2022/01/21 08:55:34;;;;;;;23.40;3.88;;;4.00;99.90;;;;;;4801819;29;20097;-77
2022/01/21 08:58:00;;;;;;;25.70;3.83;;;;;;;;;;4811143;29;20082;-77
2022/01/21 09:00:26;;;;;;;27.42;4.05;;;4.20;99.90;;;;;;4805222;29;20062;-77
2022/01/21 09:02:51;;;;;;;21.52;3.20;;;5.00;99.90;;;;;;4806130;29;20047;-77
2022/01/21 09:05:17;;;;;;;33.87;4.30;;;3.30;99.90;;;;;;4805534;29;20816;-78
2022/01/21 09:07:43;;;;;;;24.13;3.78;;;4.70;99.90;;;;;;4807137;29;20409;-77
2022/01/21 09:10:09;;;;;;;29.75;3.67;;;3.30;99.90;;;;;;4817136;29;20094;-77
2022/01/21 09:12:36;;;;;;;27.42;3.33;;;4.20;99.90;;;;;;4804590;29;20455;-77
2022/01/21 09:15:04;;;;;;;29.73;3.53;;;4.40;99.90;;;;;;4812309;29;20054;-77
2022/01/21 09:17:29;;;;;;;27.77;3.92;;;4.00;99.90;;;;;;4823348;29;20050;-77
2022/01/21 09:19:55;;;;;;;25.02;4.10;;;4.60;99.90;;;;;;4821439;29;20061;-77
2022/01/21 09:22:21;;;;;;;33.97;4.95;;;4.50;99.90;;;;;;4804622;29;20195;-78
2022/01/21 09:24:46;;;;;;;22.15;4.55;;;4.90;99.90;;;;;;4807088;29;20056;-78
2022/01/21 09:27:12;;;;;;;30.40;4.40;;;5.20;99.90;;;;;;4802341;29;20054;-78
2022/01/21 09:29:39;;;;;;;29.05;3.88;;;4.70;99.90;;;;;;4800038;29;20072;-78
2022/01/21 09:32:05;;;;;;;35.30;4.57;;;5.00;99.90;;;;;;4806717;29;20062;-78
2022/01/21 09:34:31;;;;;;;28.65;3.97;;;5.10;99.90;;;;;;4805419;29;20053;-78
2022/01/21 09:37:00;;;;;;;28.35;4.22;;;6.70;99.90;;;;;;4819560;29;20046;-78
2022/01/21 09:39:28;;;;;;;31.83;4.88;;;4.70;99.90;;;;;;4815305;29;20047;-78
2022/01/21 09:42:00;;;;;;;37.88;4.63;;;5.10;99.90;;;;;;4801025;29;20507;-78
2022/01/21 09:44:27;;;;;;;35.05;4.00;;;5.20;99.90;;;;;;4806543;29;20408;-77
2022/01/21 09:46:57;;;;;;;30.08;3.95;;;;;;;;;;4805289;29;20104;-79
2022/01/21 09:49:26;;;;;;;25.48;4.32;;;3.70;99.90;;;;;;4807242;29;20468;-78
2022/01/21 09:52:06;;;;;;;29.48;3.60;;;7.20;99.90;;;;;;4810418;29;20104;-79
2022/01/21 09:54:37;;;;;;;26.60;3.92;;;6.50;99.90;;;;;;4790294;29;20054;-78
2022/01/21 09:57:06;;;;;;;23.83;4.15;;;5.60;99.90;;;;;;4789122;29;20058;-78
2022/01/21 09:59:34;;;;;;;33.50;4.13;;;5.20;99.90;;;;;;4814805;29;20061;-77
2022/01/21 10:02:08;;;;;;;35.00;4.03;;;5.70;99.90;;;;;;4804842;29;20054;-77
2022/01/21 10:04:37;;;;;;;30.05;4.35;;;4.30;99.90;;;;;;4804609;29;20062;-77
2022/01/21 10:07:05;;;;;;;24.10;3.65;;;6.20;99.90;;;;;;4803706;29;20073;-79
2022/01/21 10:09:31;;;;;;;27.85;3.85;;;5.50;99.90;;;;;;4806722;29;20061;-77
2022/01/21 10:11:59;;;;;;;32.50;3.35;;;6.00;99.90;;;;;;4786059;29;20066;-79
2022/01/21 10:14:27;;;;;;;25.25;4.88;;;6.00;99.90;;;;;;4793496;29;20456;-78
2022/01/21 10:16:54;;;;;;;28.50;3.78;;;9.20;99.90;;;;;;4819981;29;20046;-79
2022/01/21 10:19:25;;;;;;;28.90;4.50;;;8.00;99.90;;;;;;4805383;29;20043;-78
2022/01/21 10:22:08;;;;;;;37.30;5.20;;;6.00;99.90;;;;;;4804038;29;20074;-77
2022/01/21 10:24:36;;;;;;;24.20;4.18;;;7.30;99.90;;;;;;4804615;29;20055;-77
2022/01/21 10:27:03;;;;;;;22.02;3.70;;;8.20;99.90;;;;;;4805008;29;20112;-79
2022/01/21 10:29:40;;;;;;;32.58;4.30;;;6.90;99.90;;;;;;4812216;29;20058;-77
2022/01/21 10:32:07;;;;;;;37.75;4.35;;;8.10;99.90;;;;;;4804548;29;20059;-77
2022/01/21 10:34:41;;;;;;;22.38;4.07;;;7.10;99.90;;;;;;4804317;29;20454;-77
2022/01/21 10:37:22;;;;;;;28.00;4.28;;;8.40;99.90;;;;;;4803905;29;20055;-77
2022/01/21 10:39:56;;;;;;;30.88;4.28;;;6.50;99.90;;;;;;4816822;29;20187;-78
2022/01/21 10:42:23;;;;;;;26.75;4.85;;;6.60;99.90;;;;;;4822785;29;20058;-81
2022/01/21 10:44:50;;;;;;;34.08;4.90;;;7.10;99.90;;;;;;4820738;29;20093;-78
2022/01/21 10:47:17;;;;;;;27.85;4.30;;;6.90;99.90;;;;;;4806029;29;20132;-75
2022/01/21 10:49:58;;;;;;;33.33;4.70;;;8.90;99.90;;;;;;4810130;29;20141;-77
2022/01/21 10:52:45;;;;;;;23.17;3.58;;;5.60;99.90;;;;;;4821722;29;20054;-80
2022/01/21 10:55:26;;;;;;;33.72;4.60;;;5.40;99.90;;;;;;4809188;29;20054;-77
2022/01/21 10:58:15;;;;;;;38.00;4.72;;;9.20;99.90;;;;;;4801634;29;20358;-79
2022/01/21 11:01:03;;;;;;;21.55;3.85;;;7.50;99.90;;;;;;4805022;29;20088;-77
2022/01/21 11:03:30;;;;;;;33.08;3.97;;;6.50;99.90;;;;;;4803629;29;20445;-78
2022/01/21 11:06:19;;;;;;;34.10;4.63;;;8.00;99.90;;;;;;4804916;29;20058;-78
2022/01/21 11:08:44;;;;;;;43.05;4.75;;;7.40;99.90;;;;;;4821482;29;20369;-78
2022/01/21 11:11:10;;;;;;;41.22;5.22;;;9.40;99.90;;;;;;4820873;29;20046;-78
2022/01/21 11:13:39;;;;;;;44.15;4.97;;;6.60;99.90;;;;;;4802844;29;20085;-77
2022/01/21 11:16:22;;;;;;;35.72;5.72;;;7.80;99.90;;;;;;4803945;29;20055;-78
2022/01/21 11:19:05;;;;;;;33.88;6.93;;;8.00;99.90;;;;;;4784518;30;20505;-78
2022/01/21 11:21:47;;;;;;;25.85;4.20;;;5.80;99.90;;;;;;4807390;29;20512;-78
2022/01/21 11:24:15;;;;;;;44.00;4.72;;;7.50;99.90;;;;;;4809191;29;20059;-79
2022/01/21 11:26:41;;;;;;;43.97;5.40;;;7.50;99.90;;;;;;4802334;29;20058;-79
2022/01/21 11:29:08;;;;;;;41.90;13.18;;;9.00;99.90;;;;;;4801335;29;20062;-78
2022/01/21 11:31:34;;;;;;;34.85;5.43;;;8.00;99.90;;;;;;4803205;29;20081;-78
2022/01/21 11:34:00;;;;;;;42.33;6.38;;;7.70;99.90;;;;;;4803852;29;20058;-78
2022/01/21 11:36:27;;;;;;;29.55;4.40;;;8.10;99.90;;;;;;4803269;29;20047;-81
2022/01/21 11:38:55;;;;;;;32.08;4.30;;;8.10;99.90;;;;;;4803567;29;20067;-78
2022/01/21 11:41:26;;;;;;;39.78;4.55;;;9.20;99.90;;;;;;4804392;29;20431;-78
2022/01/21 11:43:56;;;;;;;27.63;4.28;;;8.10;99.90;;;;;;4803806;29;20365;-77
2022/01/21 11:46:47;;;;;;;29.50;5.05;;;9.00;99.90;;;;;;4804911;29;20059;-77
2022/01/21 11:49:18;;;;;;;41.35;5.80;;;8.40;99.90;;;;;;4803080;29;20516;-78
2022/01/21 11:51:44;;;;;;;27.60;4.43;;;8.70;99.90;;;;;;4803352;29;20424;-79
2022/01/21 11:54:16;;;;;;;31.38;9.60;;;9.10;99.90;;;;;;4803130;29;20046;-78
2022/01/21 11:57:01;;;;;;;35.03;8.98;;;8.40;99.90;;;;;;4802968;29;20051;-77
2022/01/21 11:59:50;;;;;;;32.17;6.78;;;8.70;99.90;;;;;;4801825;29;20057;-84
2022/01/21 12:02:16;;;;;;;27.48;5.80;;;10.60;99.90;;;;;;4803582;29;20058;-79
2022/01/21 12:04:43;;;;;;;29.52;4.40;;;9.50;99.90;;;;;;4802758;29;20062;-77
2022/01/21 12:07:34;;;;;;;28.77;3.93;;;9.90;99.90;;;;;;4803133;29;20517;-77
2022/01/21 12:10:02;;;;;;;28.58;3.58;;;8.10;99.90;;;;;;4799263;29;20055;-78
2022/01/21 12:20:46;;;;;;;26.00;3.40;;;7.80;99.90;;;;;;4786469;29;20136;-77
2022/01/21 12:23:15;;;;;;;22.42;2.83;;;8.00;99.90;;;;;;4808355;29;20397;-77
2022/01/21 12:26:08;;;;;;;17.23;2.90;;;7.90;99.90;;;;;;4790657;29;20059;-76
2022/01/21 12:28:35;;;;;;;21.30;3.50;;;8.10;99.90;;;;;;4801860;29;20055;-76
2022/01/21 12:31:01;;;;;;;20.25;3.08;;;8.10;99.90;;;;;;4790652;29;20056;-76
2022/01/21 12:36:41;;;;;;;16.75;2.72;;;7.90;99.90;;;;;;4813404;29;20461;-77
2022/01/21 12:39:42;;;;;;;21.55;2.85;;;9.70;99.90;;;;;;4803428;29;20051;-76
2022/01/21 12:42:31;;;;;;;20.20;3.00;;;8.20;99.90;;;;;;4803909;29;20157;-78
2022/01/21 12:45:17;;;;;;;15.02;3.10;;;9.30;99.90;;;;;;4815311;29;20053;-76
2022/01/21 12:47:46;;;;;;;23.40;3.00;;;7.90;99.90;;;;;;4801984;29;20130;-77
2022/01/21 12:50:36;;;;;;;18.00;2.90;;;8.40;99.90;;;;;;4802919;29;20497;-77
2022/01/21 12:53:23;;;;;;;34.05;11.77;;;8.40;99.90;;;;;;4803548;29;20401;-76
2022/01/21 12:55:55;;;;;;;51.30;19.17;;;8.00;99.90;;;;;;4801887;29;21731;-76
2022/01/21 12:58:42;;;;;;;32.47;5.93;;;9.40;99.90;;;;;;4791966;29;20058;-76
2022/01/21 13:01:10;;;;;;;29.20;5.97;;;8.40;99.90;;;;;;4812130;29;20081;-77
2022/01/21 13:03:50;;;;;;;21.20;7.82;;;8.40;99.90;;;;;;4819847;29;20051;-76
2022/01/21 13:06:19;;;;;;;37.13;12.02;;;8.30;99.90;;;;;;4816657;29;20512;-77
2022/01/21 13:09:17;;;;;;;36.75;8.38;;;9.20;99.90;;;;;;4784807;29;20405;-76
2022/01/21 13:11:53;;;;;;;29.63;10.90;;;8.30;99.90;;;;;;4765570;30;20090;-76
2022/01/21 13:14:45;;;;;;;36.85;10.98;;;8.30;99.90;;;;;;4819097;29;20149;-76
2022/01/21 13:17:10;;;;;;;32.17;5.43;;;9.50;99.90;;;;;;4809381;29;20061;-76
2022/01/21 13:19:44;;;;;;;33.22;4.30;;;8.00;99.90;;;;;;4803253;29;20197;-78
2022/01/21 13:22:29;;;;;;;31.15;5.45;;;8.30;99.90;;;;;;4823184;29;20061;-77
2022/01/21 13:25:16;;;;;;;25.00;2.97;;;8.30;99.90;;;;;;4822182;29;20488;-76
2022/01/21 13:27:47;;;;;;;31.77;4.07;;;8.10;99.90;;;;;;4807681;29;20089;-78
2022/01/21 13:30:16;;;;;;;26.27;4.00;;;8.40;99.90;;;;;;4804558;29;20485;-77
2022/01/21 13:32:43;;;;;;;20.60;3.17;;;10.80;99.90;;;;;;4789356;29;20084;-76
2022/01/21 13:35:28;;;;;;;24.63;3.50;;;8.40;99.90;;;;;;4805393;29;20137;-76
2022/01/21 13:38:00;;;;;;;28.30;3.28;;;8.50;99.90;;;;;;4813365;29;20220;-77
2022/01/21 13:40:30;;;;;;;20.80;4.03;;;8.30;99.90;;;;;;4807442;29;20492;-75
2022/01/21 13:43:26;;;;;;;27.08;3.85;;;10.50;99.90;;;;;;4804563;29;20272;-79
2022/01/21 13:45:56;;;;;;;35.22;3.78;;;9.10;99.90;;;;;;4783376;29;20093;-78
2022/01/21 13:48:23;;;;;;;33.03;4.03;;;10.10;99.90;;;;;;4801025;29;20149;-77
2022/01/21 13:50:50;;;;;;;22.48;3.58;;;;;;;;;;4804544;29;20046;-77
2022/01/21 13:53:16;;;;;;;29.88;3.95;;;8.40;99.90;;;;;;4791091;29;20050;-76
2022/01/21 13:55:45;;;;;;;23.13;4.25;;;8.40;99.90;;;;;;4802188;29;20058;-76
2022/01/21 13:58:17;;;;;;;32.33;4.13;;;8.30;99.90;;;;;;4793978;29;20054;-77
2022/01/21 14:00:50;;;;;;;43.13;7.95;;;8.40;99.90;;;;;;4796088;29;20069;-76
2022/01/21 14:03:23;;;;;;;33.28;7.15;;;8.50;99.90;;;;;;4805833;29;20521;-77
2022/01/21 14:06:06;;;;;;;23.55;4.70;;;8.50;99.90;;;;;;4807062;29;20059;-76
2022/01/21 14:08:32;;;;;;;30.88;4.72;;;8.50;99.90;;;;;;4804582;29;20050;-77